Time;durP1;ratioP1;P1;durP2;ratioP2;P2;SDS_P1;SDS_P2;PMS_P1;PMS_P2;Temp;Humidity;BMP_temperature;BMP_pressure;BME280_temperature;BME280_humidity;BME280_pressure;Samples;Min_cycle;Max_cycle;Signal;HPM_P1;HPM_P2
2022/03/27 00:01:04;;;;;;;108.80;41.20;;;;;;;;;;5071994;28;20029;-65
2022/03/27 00:03:30;;;;;;;106.90;43.38;;;;;;;;;;5070924;28;20077;-65
2022/03/27 00:05:57;;;;;;;97.72;40.17;;;;;;;;;;5071320;28;20025;-65
2022/03/27 00:08:23;;;;;;;106.28;40.78;;;;;;;;;;5071638;28;20020;-65
2022/03/27 00:13:34;;;;;;;100.85;43.72;;;;;;;;;;5055203;28;20072;-65
2022/03/27 00:16:00;;;;;;;110.75;43.63;;;;;;;;;;5055195;28;20499;-65
2022/03/27 00:18:27;;;;;;;116.60;43.15;;;;;;;;;;5069860;28;20419;-65
2022/03/27 00:20:53;;;;;;;109.55;42.20;;;;;;;;;;5071360;28;20070;-65
2022/03/27 00:23:19;;;;;;;119.90;44.50;;;;;;;;;;5071402;28;20115;-65
2022/03/27 00:25:46;;;;;;;118.65;42.50;;;;;;;;;;5070750;28;20477;-65
2022/03/27 00:28:12;;;;;;;110.53;41.67;;;;;;;;;;5071562;28;20027;-65
2022/03/27 00:30:39;;;;;;;107.70;42.13;;;;;;;;;;5071340;28;20078;-65
2022/03/27 00:33:05;;;;;;;98.50;40.05;;;;;;;;;;5070801;28;20028;-63
2022/03/27 00:35:31;;;;;;;99.18;38.78;;;;;;;;;;5071513;28;20116;-63
2022/03/27 00:37:58;;;;;;;105.25;40.50;;;;;;;;;;5070788;28;20123;-63
2022/03/27 00:40:24;;;;;;;105.78;39.20;;;;;;;;;;5071348;28;20035;-63
2022/03/27 00:42:50;;;;;;;102.78;39.97;;;;;;;;;;5071170;28;20043;-63
2022/03/27 00:45:16;;;;;;;104.03;41.58;;;;;;;;;;5072539;28;20028;-63
2022/03/27 00:47:44;;;;;;;108.97;41.40;;;;;;;;;;5074188;28;20032;-63
2022/03/27 00:50:10;;;;;;;112.50;44.85;;;;;;;;;;5074722;28;20012;-62
2022/03/27 00:52:37;;;;;;;108.93;43.47;;;;;;;;;;5074688;28;20043;-63
2022/03/27 00:55:03;;;;;;;104.30;42.63;;;;;;;;;;5074661;28;20059;-62
2022/03/27 00:57:30;;;;;;;112.00;41.85;;;;;;;;;;5074590;28;20065;-63
2022/03/27 00:59:56;;;;;;;114.38;42.22;;;;;;;;;;5073995;28;20468;-63
2022/03/27 01:02:24;;;;;;;114.63;41.50;;;;;;;;;;5074095;28;20121;-63
2022/03/27 01:04:53;;;;;;;121.10;44.35;;;;;;;;;;5074450;28;20039;-63
2022/03/27 01:07:19;;;;;;;96.45;40.70;;;;;;;;;;5074534;28;20094;-63
2022/03/27 01:09:46;;;;;;;100.78;41.28;;;;;;;;;;5073775;28;20040;-62
2022/03/27 01:12:22;;;;;;;108.85;40.10;;;;;;;;;;5074015;28;20115;-62
2022/03/27 01:14:49;;;;;;;114.22;39.40;;;;;;;;;;5074023;28;20049;-62
2022/03/27 01:17:16;;;;;;;103.70;40.75;;;;;;;;;;5073704;28;20095;-63
2022/03/27 01:19:44;;;;;;;96.03;38.30;;;;;;;;;;5074148;28;20039;-63
2022/03/27 01:22:10;;;;;;;87.40;36.40;;;;;;;;;;5058040;28;20380;-62
2022/03/27 01:24:36;;;;;;;82.03;35.00;;;;;;;;;;5073991;28;20208;-62
2022/03/27 01:27:03;;;;;;;100.50;36.65;;;;;;;;;;5073928;28;20033;-63
2022/03/27 01:29:29;;;;;;;96.80;36.88;;;;;;;;;;5073876;28;20427;-62
2022/03/27 01:31:56;;;;;;;96.75;36.78;;;;;;;;;;5073197;28;20052;-63
2022/03/27 01:34:22;;;;;;;91.13;36.47;;;;;;;;;;5073895;28;20111;-62
2022/03/27 01:36:49;;;;;;;94.90;36.55;;;;;;;;;;5073735;28;20028;-63
2022/03/27 01:39:16;;;;;;;89.55;34.53;;;;;;;;;;5073633;28;20032;-63
2022/03/27 01:41:42;;;;;;;91.70;35.28;;;;;;;;;;5073829;28;20449;-62
2022/03/27 01:44:16;;;;;;;86.50;34.20;;;;;;;;;;5073039;28;20029;-63
2022/03/27 01:46:43;;;;;;;80.57;32.30;;;;;;;;;;5073279;28;20059;-63
2022/03/27 01:49:11;;;;;;;85.20;35.20;;;;;;;;;;5073543;28;20528;-62
2022/03/27 01:51:37;;;;;;;83.07;32.58;;;;;;;;;;5073603;28;20047;-62
2022/03/27 01:54:04;;;;;;;86.85;34.40;;;;;;;;;;5073045;28;20025;-62
2022/03/27 01:56:30;;;;;;;86.78;34.90;;;;;;;;;;5072786;28;20040;-62
2022/03/27 01:58:57;;;;;;;92.80;35.08;;;;;;;;;;5072897;28;20029;-62
2022/03/27 02:01:23;;;;;;;97.45;35.97;;;;;;;;;;5073201;28;20020;-63
2022/03/27 02:03:50;;;;;;;90.88;34.47;;;;;;;;;;5072703;28;20108;-63
2022/03/27 02:06:16;;;;;;;87.60;34.10;;;;;;;;;;5057293;28;20020;-62
2022/03/27 02:08:43;;;;;;;80.40;33.53;;;;;;;;;;5073119;28;20020;-62
2022/03/27 02:11:10;;;;;;;84.35;34.22;;;;;;;;;;5072983;28;20032;-62
2022/03/27 02:13:37;;;;;;;82.28;34.33;;;;;;;;;;5071274;28;20070;-62
2022/03/27 02:16:03;;;;;;;74.57;31.13;;;;;;;;;;5071161;28;20037;-62
2022/03/27 02:18:30;;;;;;;81.97;34.65;;;;;;;;;;5072259;28;20400;-62
2022/03/27 02:20:57;;;;;;;80.70;30.98;;;;;;;;;;5071842;28;20108;-62
2022/03/27 02:23:23;;;;;;;80.97;30.90;;;;;;;;;;5072418;28;20108;-63
2022/03/27 02:25:50;;;;;;;79.97;31.50;;;;;;;;;;5070739;28;20119;-62
2022/03/27 02:28:16;;;;;;;84.50;32.25;;;;;;;;;;5071260;28;20024;-63
2022/03/27 02:30:43;;;;;;;76.35;30.80;;;;;;;;;;5071368;28;20089;-63
2022/03/27 02:33:09;;;;;;;80.72;32.45;;;;;;;;;;5069970;28;20620;-63
2022/03/27 02:35:36;;;;;;;78.63;31.10;;;;;;;;;;5072413;28;20029;-62
2022/03/27 02:38:04;;;;;;;80.15;32.60;;;;;;;;;;5071355;28;20044;-62
2022/03/27 02:40:31;;;;;;;83.88;32.22;;;;;;;;;;5070369;28;20113;-63
2022/03/27 02:43:01;;;;;;;86.75;30.73;;;;;;;;;;5071392;28;20552;-62
2022/03/27 02:45:28;;;;;;;75.95;30.23;;;;;;;;;;5072131;28;20032;-62
2022/03/27 02:47:54;;;;;;;76.32;28.65;;;;;;;;;;5072105;28;20012;-62
2022/03/27 02:50:21;;;;;;;69.00;28.73;;;;;;;;;;5070437;28;20028;-62
2022/03/27 02:52:47;;;;;;;75.13;29.60;;;;;;;;;;5071858;28;20032;-63
2022/03/27 02:55:13;;;;;;;87.03;29.52;;;;;;;;;;5069051;28;20461;-62
2022/03/27 02:57:39;;;;;;;71.22;29.75;;;;;;;;;;5069706;28;20078;-62
2022/03/27 03:00:06;;;;;;;74.60;29.95;;;;;;;;;;5069907;28;20032;-63
2022/03/27 03:02:33;;;;;;;77.38;30.98;;;;;;;;;;5069982;28;20031;-63
2022/03/27 03:04:59;;;;;;;73.03;29.75;;;;;;;;;;5070746;28;20036;-63
2022/03/27 03:07:25;;;;;;;74.80;30.98;;;;;;;;;;5069379;28;20016;-62
2022/03/27 03:09:52;;;;;;;78.30;29.88;;;;;;;;;;5070398;28;20063;-62
2022/03/27 03:12:18;;;;;;;83.05;30.90;;;;;;;;;;5069883;28;20353;-63
2022/03/27 03:14:45;;;;;;;78.95;30.73;;;;;;;;;;5066215;28;20055;-63
2022/03/27 03:17:11;;;;;;;73.13;32.45;;;;;;;;;;5070961;28;20111;-63
2022/03/27 03:19:37;;;;;;;79.28;30.80;;;;;;;;;;5071714;28;20035;-62
2022/03/27 03:22:04;;;;;;;78.90;31.13;;;;;;;;;;5071526;28;20029;-63
2022/03/27 03:24:30;;;;;;;82.75;33.20;;;;;;;;;;5071565;28;20388;-62
2022/03/27 03:26:56;;;;;;;74.95;31.92;;;;;;;;;;5071402;28;20385;-62
2022/03/27 03:29:23;;;;;;;84.53;31.40;;;;;;;;;;5069611;28;20039;-62
2022/03/27 03:31:50;;;;;;;69.18;29.38;;;;;;;;;;5071499;28;20067;-62
2022/03/27 03:34:16;;;;;;;94.90;37.25;;;;;;;;;;5070997;28;20037;-62
2022/03/27 03:36:43;;;;;;;79.82;31.27;;;;;;;;;;5071734;28;20119;-62
2022/03/27 03:39:09;;;;;;;75.32;30.98;;;;;;;;;;5055239;28;20440;-62
2022/03/27 03:41:36;;;;;;;85.75;32.22;;;;;;;;;;5060942;28;20027;-62
2022/03/27 03:44:02;;;;;;;85.43;33.03;;;;;;;;;;5071537;28;20484;-62
2022/03/27 03:46:28;;;;;;;85.60;33.53;;;;;;;;;;5070134;28;20033;-62
2022/03/27 03:48:54;;;;;;;82.65;32.58;;;;;;;;;;5071560;28;20025;-62
2022/03/27 03:51:21;;;;;;;74.60;31.13;;;;;;;;;;5071326;28;20412;-62
2022/03/27 03:53:47;;;;;;;70.82;28.88;;;;;;;;;;5071751;28;20571;-62
2022/03/27 03:56:13;;;;;;;78.47;31.25;;;;;;;;;;5070049;28;20035;-62
2022/03/27 03:58:39;;;;;;;74.03;30.80;;;;;;;;;;5066798;28;20119;-63
2022/03/27 04:01:05;;;;;;;74.80;30.15;;;;;;;;;;5064246;28;20023;-62
2022/03/27 04:03:31;;;;;;;77.95;30.65;;;;;;;;;;5065320;28;20090;-63
2022/03/27 04:05:57;;;;;;;83.65;31.08;;;;;;;;;;5065238;28;20033;-62
2022/03/27 04:08:24;;;;;;;74.20;32.47;;;;;;;;;;5069631;28;20069;-62
2022/03/27 04:10:50;;;;;;;87.47;32.28;;;;;;;;;;5067686;28;20070;-62
2022/03/27 04:13:16;;;;;;;80.15;31.80;;;;;;;;;;5058201;28;20393;-62
2022/03/27 04:15:42;;;;;;;88.15;33.03;;;;;;;;;;5069229;28;20021;-62
2022/03/27 04:18:09;;;;;;;82.90;31.58;;;;;;;;;;5070471;28;20051;-62
2022/03/27 04:20:35;;;;;;;86.45;31.88;;;;;;;;;;5073384;28;20043;-62
2022/03/27 04:23:02;;;;;;;85.57;32.42;;;;;;;;;;5072018;28;20107;-63
2022/03/27 04:25:28;;;;;;;87.00;33.28;;;;;;;;;;5071078;28;20029;-62
2022/03/27 04:27:54;;;;;;;82.13;32.20;;;;;;;;;;5073976;28;20035;-62
2022/03/27 04:30:21;;;;;;;82.15;33.45;;;;;;;;;;5069355;28;20036;-63
2022/03/27 04:32:48;;;;;;;85.88;33.22;;;;;;;;;;5068493;28;20120;-63
2022/03/27 04:35:14;;;;;;;80.05;31.90;;;;;;;;;;5069958;28;20033;-62
2022/03/27 04:37:44;;;;;;;82.75;31.95;;;;;;;;;;5073446;28;20082;-62
2022/03/27 04:40:13;;;;;;;80.75;32.03;;;;;;;;;;5071463;28;20028;-62
2022/03/27 04:42:39;;;;;;;85.80;31.98;;;;;;;;;;5070751;28;20681;-62
2022/03/27 04:45:05;;;;;;;69.03;28.90;;;;;;;;;;5063448;28;20021;-62
2022/03/27 04:47:31;;;;;;;72.03;29.48;;;;;;;;;;5072669;28;20497;-62
2022/03/27 04:49:57;;;;;;;70.90;29.65;;;;;;;;;;5073516;28;20032;-62
2022/03/27 04:52:24;;;;;;;91.20;31.88;;;;;;;;;;5074538;28;20028;-62
2022/03/27 04:54:50;;;;;;;83.13;30.48;;;;;;;;;;5058286;28;20043;-62
2022/03/27 04:57:17;;;;;;;73.00;29.55;;;;;;;;;;5074616;28;20033;-62
2022/03/27 04:59:43;;;;;;;70.00;30.13;;;;;;;;;;5071010;28;20416;-62
2022/03/27 05:02:10;;;;;;;82.75;31.95;;;;;;;;;;5074333;28;20095;-62
2022/03/27 05:04:37;;;;;;;79.20;28.63;;;;;;;;;;5071446;28;20024;-62
2022/03/27 05:07:04;;;;;;;80.68;29.83;;;;;;;;;;5074461;28;20012;-62
2022/03/27 05:09:30;;;;;;;89.40;31.92;;;;;;;;;;5072485;28;20037;-62
2022/03/27 05:11:56;;;;;;;75.80;29.23;;;;;;;;;;5072961;28;20450;-62
2022/03/27 05:14:22;;;;;;;78.13;29.25;;;;;;;;;;5070304;28;20529;-62
2022/03/27 05:16:48;;;;;;;72.68;27.92;;;;;;;;;;5073855;28;20495;-62
2022/03/27 05:19:15;;;;;;;68.50;28.17;;;;;;;;;;5072782;28;20021;-62
2022/03/27 05:21:41;;;;;;;71.10;28.00;;;;;;;;;;5073722;28;20046;-62
2022/03/27 05:24:09;;;;;;;75.63;30.08;;;;;;;;;;5073902;28;20021;-62
2022/03/27 05:26:35;;;;;;;86.05;30.90;;;;;;;;;;5070804;28;20441;-62
2022/03/27 05:29:04;;;;;;;68.50;28.33;;;;;;;;;;5063630;28;20036;-62
2022/03/27 05:31:30;;;;;;;70.55;29.77;;;;;;;;;;5067093;28;20043;-62
2022/03/27 05:33:56;;;;;;;70.95;28.67;;;;;;;;;;5072500;28;20020;-62
2022/03/27 05:36:23;;;;;;;68.40;29.33;;;;;;;;;;5070722;28;20039;-62
2022/03/27 05:38:49;;;;;;;60.55;26.25;;;;;;;;;;5073406;28;20027;-62
2022/03/27 05:41:16;;;;;;;79.15;28.80;;;;;;;;;;5072576;28;20464;-62
2022/03/27 05:43:42;;;;;;;69.38;27.90;;;;;;;;;;5071265;28;20058;-62
2022/03/27 05:46:08;;;;;;;74.22;27.95;;;;;;;;;;5072040;28;20067;-62
2022/03/27 05:48:34;;;;;;;108.22;32.53;;;;;;;;;;5073323;28;20031;-62
2022/03/27 05:51:00;;;;;;;141.63;40.78;;;;;;;;;;5071118;28;20210;-62
2022/03/27 05:53:26;;;;;;;210.20;45.70;;;;;;;;;;5073338;28;20488;-62
2022/03/27 05:55:53;;;;;;;206.20;43.22;;;;;;;;;;5072451;28;20028;-62
2022/03/27 05:58:19;;;;;;;240.63;42.92;;;;;;;;;;5072261;28;20035;-62
2022/03/27 06:00:45;;;;;;;188.50;42.58;;;;;;;;;;5072358;28;20036;-63
2022/03/27 06:03:11;;;;;;;187.95;48.10;;;;;;;;;;5072799;28;20032;-62
2022/03/27 06:05:37;;;;;;;202.50;43.17;;;;;;;;;;5071644;28;20053;-63
2022/03/27 06:08:04;;;;;;;224.57;44.42;;;;;;;;;;5072678;28;20044;-62
2022/03/27 06:10:34;;;;;;;247.93;46.08;;;;;;;;;;5071348;28;20035;-62
2022/03/27 06:13:01;;;;;;;290.35;49.75;;;;;;;;;;5072515;28;20039;-62
2022/03/27 06:15:27;;;;;;;169.98;41.67;;;;;;;;;;5072716;28;20039;-62
2022/03/27 06:17:54;;;;;;;141.57;36.35;;;;;;;;;;5071711;28;20239;-63
2022/03/27 06:20:24;;;;;;;300.75;38.20;;;;;;;;;;5070082;28;20469;-63
2022/03/27 06:22:51;;;;;;;213.00;40.13;;;;;;;;;;5069165;28;20385;-62
2022/03/27 06:25:18;;;;;;;325.70;43.15;;;;;;;;;;5070047;28;20031;-63
2022/03/27 06:27:44;;;;;;;215.48;41.15;;;;;;;;;;5070343;28;20383;-63
2022/03/27 06:30:12;;;;;;;290.30;42.95;;;;;;;;;;5072268;28;20063;-62
2022/03/27 06:32:39;;;;;;;289.65;45.65;;;;;;;;;;5069826;28;20029;-62
2022/03/27 06:35:06;;;;;;;340.25;45.10;;;;;;;;;;5069855;28;20033;-62
2022/03/27 06:37:33;;;;;;;312.67;47.75;;;;;;;;;;5069179;28;20472;-62
2022/03/27 06:40:00;;;;;;;304.60;46.13;;;;;;;;;;5071163;28;20059;-63
2022/03/27 06:42:26;;;;;;;295.48;46.90;;;;;;;;;;5070147;28;20090;-62
2022/03/27 06:44:53;;;;;;;300.83;47.33;;;;;;;;;;5068225;28;20074;-62
2022/03/27 06:47:20;;;;;;;258.75;45.97;;;;;;;;;;5071387;28;20137;-62
2022/03/27 06:49:46;;;;;;;396.95;50.17;;;;;;;;;;5069029;28;20496;-62
2022/03/27 06:52:13;;;;;;;395.65;47.88;;;;;;;;;;5069396;28;20400;-62
2022/03/27 06:54:39;;;;;;;436.55;50.15;;;;;;;;;;5071811;28;20603;-62
2022/03/27 06:57:05;;;;;;;302.92;39.20;;;;;;;;;;5069762;28;20111;-63
2022/03/27 07:03:01;;;;;;;535.63;50.10;;;;;;;;;;5070657;28;20040;-62
2022/03/27 07:05:03;;;;;;;517.38;46.63;;;;;;;;;;5062884;28;20567;-62
2022/03/27 07:07:29;;;;;;;254.07;37.72;;;;;;;;;;5069042;28;20047;-62
2022/03/27 07:09:55;;;;;;;234.30;34.88;;;;;;;;;;5067133;28;20025;-62
2022/03/27 07:12:21;;;;;;;493.70;45.10;;;;;;;;;;5067189;28;20028;-62
2022/03/27 07:14:47;;;;;;;317.73;37.50;;;;;;;;;;5067478;28;20044;-62
2022/03/27 07:17:17;;;;;;;415.58;40.35;;;;;;;;;;5068718;28;20082;-62
2022/03/27 07:19:46;;;;;;;371.70;39.85;;;;;;;;;;5067934;28;20041;-62
2022/03/27 07:22:12;;;;;;;275.83;36.63;;;;;;;;;;5068226;28;20029;-62
2022/03/27 07:24:39;;;;;;;125.35;28.58;;;;;;;;;;5069773;28;20031;-62
2022/03/27 07:27:05;;;;;;;156.48;32.65;;;;;;;;;;5068801;28;20029;-62
2022/03/27 07:29:32;;;;;;;103.82;30.25;;;;;;;;;;5069025;28;20405;-62
2022/03/27 07:31:58;;;;;;;175.40;31.05;;;;;;;;;;5069072;28;20410;-62
2022/03/27 07:34:25;;;;;;;127.88;29.40;;;;;;;;;;5068686;28;20036;-62
2022/03/27 07:36:51;;;;;;;128.85;32.67;;;;;;;;;;5069017;28;20082;-62
2022/03/27 07:39:17;;;;;;;147.23;30.98;;;;;;;;;;5067012;28;20080;-62
2022/03/27 07:41:43;;;;;;;187.52;31.75;;;;;;;;;;5065845;28;20025;-62
2022/03/27 07:44:09;;;;;;;232.38;32.75;;;;;;;;;;5061873;28;20017;-61
2022/03/27 07:46:36;;;;;;;123.65;29.92;;;;;;;;;;5056342;28;20085;-62
2022/03/27 07:49:02;;;;;;;177.25;30.98;;;;;;;;;;5052587;28;20036;-62
2022/03/27 07:51:28;;;;;;;210.10;35.60;;;;;;;;;;5051902;28;20493;-62
2022/03/27 07:53:54;;;;;;;233.80;37.75;;;;;;;;;;5057186;28;20078;-62
2022/03/27 07:56:20;;;;;;;417.60;45.55;;;;;;;;;;5060169;28;20036;-62
2022/03/27 07:58:46;;;;;;;225.18;35.92;;;;;;;;;;5066566;28;20039;-62
2022/03/27 08:01:14;;;;;;;298.75;39.85;;;;;;;;;;5065307;28;20025;-62
2022/03/27 08:03:41;;;;;;;288.10;43.50;;;;;;;;;;5058765;28;20029;-62
2022/03/27 08:06:08;;;;;;;171.45;35.13;;;;;;;;;;5059120;28;20024;-62
2022/03/27 08:08:34;;;;;;;117.32;31.58;;;;;;;;;;5059165;28;20032;-62
2022/03/27 08:11:00;;;;;;;207.50;35.72;;;;;;;;;;5064928;28;20032;-62
2022/03/27 08:13:26;;;;;;;188.18;34.58;;;;;;;;;;5060335;28;20058;-62
2022/03/27 08:15:53;;;;;;;181.70;35.53;;;;;;;;;;5062429;28;20032;-62
2022/03/27 08:18:19;;;;;;;172.43;33.38;;;;;;;;;;5067835;28;20107;-62
2022/03/27 08:20:45;;;;;;;99.82;36.85;;;;;;;;;;5057064;28;20061;-62
2022/03/27 08:23:11;;;;;;;181.90;36.45;;;;;;;;;;5056068;28;20496;-62
2022/03/27 08:28:22;;;;;;;84.40;34.97;;;;;;;;;;5060890;28;20033;-62
2022/03/27 08:30:49;;;;;;;105.78;35.90;;;;;;;;;;5062008;28;20025;-62
2022/03/27 08:33:16;;;;;;;104.43;35.78;;;;;;;;;;5062104;28;20032;-62
2022/03/27 08:35:42;;;;;;;97.55;36.65;;;;;;;;;;5073232;28;20032;-62
2022/03/27 08:38:09;;;;;;;83.60;36.78;;;;;;;;;;5079801;28;20036;-62
2022/03/27 08:40:38;;;;;;;90.20;38.85;;;;;;;;;;5072981;28;20397;-62
2022/03/27 08:43:14;;;;;;;88.28;38.70;;;;;;;;;;5080385;28;20503;-62
2022/03/27 08:45:41;;;;;;;113.45;45.05;;;;;;;;;;5072565;28;20484;-62
2022/03/27 08:48:07;;;;;;;119.32;45.60;;;;;;;;;;5074120;28;20458;-62
2022/03/27 08:50:44;;;;;;;122.25;44.90;;;;;;;;;;5068506;28;20465;-62
2022/03/27 08:53:13;;;;;;;128.02;49.75;;;;;;;;;;5069687;28;20469;-62
2022/03/27 08:55:51;;;;;;;114.35;46.10;;;;;;;;;;5078916;28;20382;-62
2022/03/27 08:58:19;;;;;;;125.03;49.00;;;;;;;;;;5072678;28;20037;-63
2022/03/27 09:00:45;;;;;;;126.00;50.55;;;;;;;;;;5068632;28;20028;-63
2022/03/27 09:03:12;;;;;;;124.55;48.72;;;;;;;;;;5068223;28;20028;-62
2022/03/27 09:05:38;;;;;;;134.07;50.92;;;;;;;;;;5069235;28;20031;-62
2022/03/27 09:08:07;;;;;;;121.57;49.42;;;;;;;;;;5070927;28;20029;-62
2022/03/27 09:10:34;;;;;;;137.32;49.75;;;;;;;;;;5068269;28;20021;-62
2022/03/27 09:13:01;;;;;;;124.53;49.83;;;;;;;;;;5070147;28;20492;-63
2022/03/27 09:15:27;;;;;;;128.25;49.83;;;;;;;;;;5066928;28;20074;-62
2022/03/27 09:17:56;;;;;;;127.05;47.47;;;;;;;;;;5072268;28;20036;-62
2022/03/27 09:20:41;;;;;;;131.52;49.92;;;;;;;;;;5069468;28;20032;-62
2022/03/27 09:23:20;;;;;;;126.90;50.08;;;;;;;;;;5072385;28;20775;-62
2022/03/27 09:25:47;;;;;;;131.05;50.03;;;;;;;;;;5072856;28;20055;-62
2022/03/27 09:28:21;;;;;;;134.27;49.53;;;;;;;;;;5071741;28;20028;-63
2022/03/27 09:30:47;;;;;;;128.30;49.75;;;;;;;;;;5070075;28;20062;-63
2022/03/27 09:33:30;;;;;;;131.63;49.25;;;;;;;;;;5071293;28;20028;-62
2022/03/27 09:36:11;;;;;;;119.28;49.80;;;;;;;;;;5071446;28;20039;-63
2022/03/27 09:38:38;;;;;;;117.97;49.75;;;;;;;;;;5071474;28;20032;-63
2022/03/27 09:41:05;;;;;;;115.70;48.72;;;;;;;;;;5071603;28;20078;-62
2022/03/27 09:43:31;;;;;;;104.93;43.17;;;;;;;;;;5068784;28;20502;-63
2022/03/27 09:46:02;;;;;;;114.75;46.85;;;;;;;;;;5068433;28;20484;-62
2022/03/27 09:48:29;;;;;;;122.80;48.67;;;;;;;;;;5066963;28;20048;-63
2022/03/27 09:50:59;;;;;;;123.60;47.60;;;;;;;;;;5072250;28;20024;-63
2022/03/27 09:53:26;;;;;;;111.15;45.03;;;;;;;;;;5072161;28;20036;-63
2022/03/27 09:55:53;;;;;;;108.88;47.15;;;;;;;;;;5073200;28;20033;-63
2022/03/27 09:58:38;;;;;;;107.45;45.38;;;;;;;;;;5071411;28;20127;-63
2022/03/27 10:01:11;;;;;;;112.63;45.42;;;;;;;;;;5064683;28;20060;-63
2022/03/27 10:03:59;;;;;;;119.75;45.28;;;;;;;;;;5067915;28;20047;-62
2022/03/27 10:06:28;;;;;;;107.40;45.97;;;;;;;;;;5060164;28;20075;-63
2022/03/27 10:08:54;;;;;;;107.05;43.38;;;;;;;;;;5073395;28;20387;-63
2022/03/27 10:11:22;;;;;;;115.65;46.03;;;;;;;;;;5066566;28;20021;-63
2022/03/27 10:13:52;;;;;;;106.53;43.17;;;;;;;;;;5071625;28;20047;-63
2022/03/27 10:16:22;;;;;;;110.32;45.50;;;;;;;;;;5065469;28;20160;-63
2022/03/27 10:18:49;;;;;;;108.45;42.67;;;;;;;;;;5068000;28;20033;-63
2022/03/27 10:21:15;;;;;;;100.03;41.95;;;;;;;;;;5071296;28;20025;-64
2022/03/27 10:23:44;;;;;;;98.55;40.72;;;;;;;;;;5068972;28;20016;-63
2022/03/27 10:26:12;;;;;;;103.45;42.95;;;;;;;;;;5069993;28;20045;-63
2022/03/27 10:28:38;;;;;;;103.45;43.70;;;;;;;;;;5062290;28;20490;-63
2022/03/27 10:31:04;;;;;;;92.25;39.15;;;;;;;;;;5071414;28;20135;-63
2022/03/27 10:33:30;;;;;;;89.13;39.38;;;;;;;;;;5069546;28;20032;-63
2022/03/27 10:36:03;;;;;;;88.03;40.72;;;;;;;;;;5071720;28;20044;-63
2022/03/27 10:38:44;;;;;;;89.90;39.88;;;;;;;;;;5068801;28;20129;-62
2022/03/27 10:41:11;;;;;;;97.18;42.97;;;;;;;;;;5064673;28;21005;-63
2022/03/27 10:43:52;;;;;;;84.55;37.58;;;;;;;;;;5067114;28;20874;-63
2022/03/27 10:46:19;;;;;;;90.60;38.35;;;;;;;;;;5070035;28;20044;-63
2022/03/27 10:48:47;;;;;;;86.93;37.53;;;;;;;;;;5075544;28;20028;-63
2022/03/27 10:51:25;;;;;;;91.78;43.75;;;;;;;;;;5080474;28;20111;-62
2022/03/27 10:54:20;;;;;;;89.93;40.38;;;;;;;;;;5068256;28;20044;-63
2022/03/27 10:56:50;;;;;;;87.68;39.03;;;;;;;;;;5075575;28;20404;-62
2022/03/27 10:59:17;;;;;;;79.75;37.13;;;;;;;;;;5073002;28;20036;-63
2022/03/27 11:01:44;;;;;;;87.05;35.63;;;;;;;;;;5073057;28;20107;-63
2022/03/27 11:04:15;;;;;;;75.18;34.22;;;;;;;;;;5077332;28;20032;-63
2022/03/27 11:06:43;;;;;;;86.72;34.53;;;;;;;;;;5080877;28;20020;-63
2022/03/27 11:09:12;;;;;;;82.65;33.28;;;;;;;;;;5074003;28;20036;-62
2022/03/27 11:11:38;;;;;;;82.22;34.35;;;;;;;;;;5080083;28;20031;-62
2022/03/27 11:14:05;;;;;;;76.00;31.35;;;;;;;;;;5077207;28;20048;-62
2022/03/27 11:16:33;;;;;;;77.78;34.28;;;;;;;;;;5078963;28;20036;-62
2022/03/27 11:18:59;;;;;;;78.80;34.92;;;;;;;;;;5069502;28;20021;-62
2022/03/27 11:21:28;;;;;;;76.72;35.05;;;;;;;;;;5071605;28;20471;-63
2022/03/27 11:24:03;;;;;;;70.25;32.47;;;;;;;;;;5075617;28;20032;-63
2022/03/27 11:26:30;;;;;;;69.03;31.75;;;;;;;;;;5070502;28;20491;-63
2022/03/27 11:28:59;;;;;;;69.00;32.53;;;;;;;;;;5073692;28;20028;-63
2022/03/27 11:31:33;;;;;;;72.38;32.47;;;;;;;;;;5068010;28;20040;-62
2022/03/27 11:34:19;;;;;;;71.15;30.73;;;;;;;;;;5075372;28;20510;-63
2022/03/27 11:36:50;;;;;;;70.63;31.38;;;;;;;;;;5071743;28;20028;-63
2022/03/27 11:39:32;;;;;;;71.35;31.70;;;;;;;;;;5073467;28;20035;-63
2022/03/27 11:42:18;;;;;;;71.78;31.50;;;;;;;;;;5073956;28;20454;-63
2022/03/27 11:47:36;;;;;;;64.22;30.45;;;;;;;;;;5075073;28;20040;-63
2022/03/27 11:50:03;;;;;;;71.75;32.20;;;;;;;;;;5069662;28;20068;-63
2022/03/27 11:52:29;;;;;;;73.93;33.78;;;;;;;;;;5066699;28;20028;-63
2022/03/27 11:55:11;;;;;;;68.80;31.02;;;;;;;;;;5069736;28;20025;-63
2022/03/27 11:57:57;;;;;;;72.93;32.13;;;;;;;;;;5060979;28;20494;-63
2022/03/27 12:00:35;;;;;;;69.25;31.67;;;;;;;;;;5057779;28;20509;-63
2022/03/27 12:03:02;;;;;;;77.90;30.65;;;;;;;;;;5064205;28;20050;-63
2022/03/27 12:05:33;;;;;;;65.95;30.58;;;;;;;;;;5067175;28;20041;-63
2022/03/27 12:07:59;;;;;;;67.93;31.63;;;;;;;;;;5068500;28;20370;-63
2022/03/27 12:10:26;;;;;;;65.45;31.92;;;;;;;;;;5062043;28;20432;-63
2022/03/27 12:12:59;;;;;;;76.40;31.83;;;;;;;;;;5062392;28;20028;-63
2022/03/27 12:15:41;;;;;;;70.72;32.13;;;;;;;;;;5067907;28;20115;-63
2022/03/27 12:18:07;;;;;;;62.22;29.70;;;;;;;;;;5068191;28;20033;-63
2022/03/27 12:20:44;;;;;;;65.93;30.02;;;;;;;;;;5069174;28;20040;-63
2022/03/27 12:23:24;;;;;;;59.22;28.17;;;;;;;;;;5067005;28;20397;-63
2022/03/27 12:25:57;;;;;;;63.90;29.75;;;;;;;;;;5066737;28;20519;-63
2022/03/27 12:31:27;;;;;;;70.63;29.30;;;;;;;;;;5064535;28;19991;-64
2022/03/27 12:33:54;;;;;;;65.20;29.77;;;;;;;;;;5063757;28;20032;-64
2022/03/27 12:36:20;;;;;;;69.38;28.90;;;;;;;;;;5067067;28;20037;-64
2022/03/27 12:38:47;;;;;;;60.47;29.48;;;;;;;;;;5066644;28;20414;-64
2022/03/27 12:41:13;;;;;;;58.90;27.83;;;;;;;;;;5072417;28;20040;-64
2022/03/27 12:43:55;;;;;;;61.00;27.52;;;;;;;;;;5071862;28;20032;-64
2022/03/27 12:46:23;;;;;;;63.50;28.20;;;;;;;;;;5070538;28;20028;-64
2022/03/27 12:48:59;;;;;;;65.40;29.45;;;;;;;;;;5072800;28;20032;-64
2022/03/27 12:51:25;;;;;;;72.80;31.02;;;;;;;;;;5062400;28;20488;-64
2022/03/27 12:54:05;;;;;;;68.95;30.85;;;;;;;;;;5070307;28;20048;-64
2022/03/27 12:56:32;;;;;;;67.85;28.58;;;;;;;;;;5065927;28;20048;-64
2022/03/27 12:58:58;;;;;;;60.42;28.65;;;;;;;;;;5070918;28;20039;-64
2022/03/27 13:01:25;;;;;;;62.63;27.88;;;;;;;;;;5068029;28;20028;-64
2022/03/27 13:04:04;;;;;;;66.28;29.58;;;;;;;;;;5069424;28;20045;-64
2022/03/27 13:06:38;;;;;;;61.95;29.30;;;;;;;;;;5068499;28;20028;-64
2022/03/27 13:09:05;;;;;;;57.10;28.65;;;;;;;;;;5065367;28;20386;-64
2022/03/27 13:11:31;;;;;;;57.60;27.88;;;;;;;;;;5066980;28;20063;-63
2022/03/27 13:14:01;;;;;;;65.15;29.75;;;;;;;;;;5069767;28;20080;-63
2022/03/27 13:16:29;;;;;;;64.78;28.02;;;;;;;;;;5068659;28;20039;-64
2022/03/27 13:19:05;;;;;;;58.00;28.15;;;;;;;;;;5071591;28;20028;-64
2022/03/27 13:21:43;;;;;;;58.95;29.05;;;;;;;;;;5069637;28;20476;-64
2022/03/27 13:24:11;;;;;;;61.00;29.80;;;;;;;;;;5070845;28;20024;-64
2022/03/27 13:26:38;;;;;;;66.88;29.75;;;;;;;;;;5069278;28;20562;-64
2022/03/27 13:29:05;;;;;;;62.47;29.90;;;;;;;;;;5069774;28;20031;-64
2022/03/27 13:31:31;;;;;;;58.55;27.50;;;;;;;;;;5069939;28;20078;-64
2022/03/27 13:33:58;;;;;;;63.17;28.42;;;;;;;;;;5069563;28;20028;-64
2022/03/27 13:36:24;;;;;;;58.17;27.10;;;;;;;;;;5071556;28;20052;-64
2022/03/27 13:38:50;;;;;;;58.80;28.25;;;;;;;;;;5067663;28;20408;-64
2022/03/27 13:44:01;;;;;;;67.82;29.95;;;;;;;;;;5069553;28;20369;-64
2022/03/27 13:46:27;;;;;;;61.63;27.77;;;;;;;;;;5069539;28;20081;-64
2022/03/27 13:48:53;;;;;;;54.95;26.45;;;;;;;;;;5071014;28;20381;-64
2022/03/27 13:51:20;;;;;;;62.40;29.42;;;;;;;;;;5069815;28;20036;-64
2022/03/27 13:53:46;;;;;;;58.00;27.88;;;;;;;;;;5070034;28;20039;-64
2022/03/27 13:56:12;;;;;;;63.17;28.48;;;;;;;;;;5071259;28;20083;-64
2022/03/27 13:58:39;;;;;;;57.45;28.08;;;;;;;;;;5069723;28;20024;-64
2022/03/27 14:01:05;;;;;;;64.88;28.58;;;;;;;;;;5069139;28;20395;-64
2022/03/27 14:03:31;;;;;;;65.10;29.50;;;;;;;;;;5067114;28;20021;-64
2022/03/27 14:05:57;;;;;;;59.22;28.98;;;;;;;;;;5070607;28;20023;-64
2022/03/27 14:08:24;;;;;;;62.17;30.00;;;;;;;;;;5070532;28;20119;-64
2022/03/27 14:10:50;;;;;;;61.90;29.30;;;;;;;;;;5069229;28;20025;-64
2022/03/27 14:13:16;;;;;;;60.17;28.83;;;;;;;;;;5070563;28;20064;-64
2022/03/27 14:15:43;;;;;;;62.92;29.98;;;;;;;;;;5069168;28;20037;-64
2022/03/27 14:18:09;;;;;;;64.20;29.92;;;;;;;;;;5069279;28;20105;-64
2022/03/27 14:20:35;;;;;;;60.08;28.63;;;;;;;;;;5066682;28;20116;-64
2022/03/27 14:23:01;;;;;;;60.63;28.05;;;;;;;;;;5067142;28;20146;-64
2022/03/27 14:25:28;;;;;;;62.25;30.23;;;;;;;;;;5065073;28;20024;-64
2022/03/27 14:27:56;;;;;;;70.15;28.38;;;;;;;;;;5067109;28;20024;-64
2022/03/27 14:30:22;;;;;;;63.78;29.38;;;;;;;;;;5067716;28;20107;-64
2022/03/27 14:32:49;;;;;;;64.30;29.83;;;;;;;;;;5064023;28;20046;-64